Time;durP1;ratioP1;P1;durP2;ratioP2;P2;SDS_P1;SDS_P2;PMS_P1;PMS_P2;Temp;Humidity;BMP_temperature;BMP_pressure;BME280_temperature;BME280_humidity;BME280_pressure;Samples;Min_cycle;Max_cycle;Signal;HPM_P1;HPM_P2
2021/01/30 00:01:27;;;;;;;13.23;3.13;;;;;;;9.25;100.00;100201.04;1790742;80;26744;-79
2021/01/30 00:03:57;;;;;;;15.97;3.47;;;;;;;9.21;100.00;100201.36;1790710;80;26750;-79
2021/01/30 00:06:27;;;;;;;12.73;3.27;;;;;;;9.17;100.00;100194.75;1790691;79;26281;-79
2021/01/30 00:08:58;;;;;;;14.27;3.00;;;;;;;9.13;100.00;100189.52;1790787;80;26398;-79
2021/01/30 00:11:28;;;;;;;10.03;3.00;;;;;;;9.11;100.00;100187.62;1790820;80;26233;-78
2021/01/30 00:13:58;;;;;;;15.67;3.13;;;;;;;9.11;100.00;100192.58;1790674;80;26324;-78
2021/01/30 00:16:28;;;;;;;16.43;3.47;;;;;;;9.23;100.00;100185.84;1790654;80;26232;-78
2021/01/30 00:18:59;;;;;;;10.10;2.57;;;;;;;9.04;100.00;100182.95;1790723;80;26226;-78
2021/01/30 00:21:29;;;;;;;10.60;3.00;;;;;;;8.98;100.00;100172.51;1790720;80;26355;-78
2021/01/30 00:23:59;;;;;;;12.40;3.27;;;;;;;8.94;100.00;100179.72;1790720;79;26354;-79
2021/01/30 00:26:29;;;;;;;9.77;2.90;;;;;;;8.91;100.00;100180.30;1790715;80;26234;-79
2021/01/30 00:28:59;;;;;;;8.03;2.67;;;;;;;8.92;100.00;100179.75;1790746;80;26316;-79
2021/01/30 00:31:28;;;;;;;9.80;2.50;;;;;;;9.01;100.00;100180.78;1790733;80;26230;-78
2021/01/30 00:33:58;;;;;;;14.70;3.07;;;;;;;8.99;100.00;100171.92;1790741;80;26229;-78
2021/01/30 00:36:28;;;;;;;15.70;3.53;;;;;;;8.88;100.00;100171.76;1790656;80;26233;-79
2021/01/30 00:38:58;;;;;;;12.07;2.73;;;;;;;8.90;100.00;100171.72;1790771;80;26651;-78
2021/01/30 00:41:28;;;;;;;13.33;2.87;;;;;;;8.85;100.00;100169.02;1790724;80;26300;-78
2021/01/30 00:43:58;;;;;;;8.47;2.60;;;;;;;8.80;100.00;100175.16;1790737;80;26234;-77
2021/01/30 00:46:28;;;;;;;6.27;2.27;;;;;;;8.81;100.00;100178.20;1790804;80;26340;-78
2021/01/30 00:48:58;;;;;;;11.23;2.63;;;;;;;8.82;100.00;100174.29;1790725;80;26752;-80
2021/01/30 00:51:28;;;;;;;9.67;2.73;;;;;;;8.76;100.00;100168.55;1790675;80;26322;-79
2021/01/30 00:53:58;;;;;;;20.87;3.73;;;;;;;8.72;100.00;100171.07;1790755;80;26286;-80
2021/01/30 00:56:28;;;;;;;13.90;3.17;;;;;;;8.79;100.00;100166.58;1790764;80;26230;-80
2021/01/30 00:58:58;;;;;;;10.00;2.57;;;;;;;8.97;100.00;100158.38;1790778;80;26229;-79
2021/01/30 01:01:27;;;;;;;9.83;3.00;;;;;;;8.86;100.00;100158.19;1790694;80;26233;-80
2021/01/30 01:03:57;;;;;;;11.50;2.80;;;;;;;8.85;100.00;100159.33;1790665;80;26234;-79
2021/01/30 01:06:27;;;;;;;11.40;2.73;;;;;;;8.91;100.00;100147.08;1790569;79;26226;-79
2021/01/30 01:08:57;;;;;;;10.43;2.90;;;;;;;8.91;100.00;100145.69;1790716;80;26327;-79
2021/01/30 01:11:28;;;;;;;10.60;3.00;;;;;;;8.88;100.00;100139.36;1790798;80;26230;-80
2021/01/30 01:13:57;;;;;;;7.53;2.70;;;;;;;8.95;100.00;100136.23;1790694;80;26226;-80
2021/01/30 01:16:28;;;;;;;12.90;2.57;;;;;;;8.98;100.00;100135.12;1790799;80;26238;-80
2021/01/30 01:18:57;;;;;;;9.17;2.90;;;;;;;8.92;100.00;100126.58;1790942;80;26308;-80
2021/01/30 01:21:27;;;;;;;10.13;3.07;;;;;;;8.90;100.00;100122.45;1790726;80;26238;-79
2021/01/30 01:23:57;;;;;;;8.63;2.87;;;;;;;8.83;100.00;100124.16;1790794;79;26336;-78
2021/01/30 01:26:27;;;;;;;11.90;3.10;;;;;;;8.77;100.00;100118.98;1790749;80;26728;-78
2021/01/30 01:28:57;;;;;;;13.07;3.33;;;;;;;8.77;100.00;100113.45;1790730;80;26331;-78
2021/01/30 01:31:27;;;;;;;10.90;3.37;;;;;;;8.71;100.00;100104.35;1790782;80;26226;-77
2021/01/30 01:33:57;;;;;;;11.80;2.50;;;;;;;8.66;100.00;100100.23;1790938;80;26323;-78
2021/01/30 01:36:27;;;;;;;11.60;2.83;;;;;;;8.71;100.00;100091.89;1790798;80;26226;-78
2021/01/30 01:38:57;;;;;;;8.93;2.83;;;;;;;8.71;100.00;100088.30;1790884;80;26226;-77
2021/01/30 01:41:26;;;;;;;13.03;3.17;;;;;;;8.72;100.00;100084.41;1790745;80;26226;-77
2021/01/30 01:43:56;;;;;;;13.67;3.47;;;;;;;8.74;100.00;100082.99;1790766;80;26226;-78
2021/01/30 01:46:29;;;;;;;11.50;2.73;;;;;;;8.77;100.00;100070.53;1790777;80;26226;-78
2021/01/30 01:49:03;;;;;;;10.93;2.70;;;;;;;8.77;100.00;100067.76;1790751;80;26230;-77
2021/01/30 01:51:38;;;;;;;13.87;2.93;;;;;;;8.76;100.00;100062.78;1790706;80;26233;-79
2021/01/30 01:54:11;;;;;;;11.10;3.30;;;;;;;8.80;100.00;100063.84;1790858;80;26320;-80
2021/01/30 01:56:43;;;;;;;6.20;2.80;;;;;;;8.80;100.00;100059.69;1790934;80;26316;-79
2021/01/30 01:59:15;;;;;;;13.50;3.53;;;;;;;8.74;100.00;100060.84;1790790;80;26707;-79
2021/01/30 02:01:46;;;;;;;11.23;2.77;;;;;;;8.72;100.00;100054.80;1790948;80;26233;-79
2021/01/30 02:04:18;;;;;;;10.67;2.87;;;;;;;8.67;100.00;100045.14;1790981;80;26230;-79
2021/01/30 02:06:50;;;;;;;10.73;2.87;;;;;;;8.61;100.00;100042.98;1790940;80;26241;-78
2021/01/30 02:09:23;;;;;;;13.23;3.17;;;;;;;8.60;100.00;100039.94;1790953;80;26733;-78
2021/01/30 02:12:02;;;;;;;10.60;3.17;;;;;;;8.54;100.00;100037.53;1790918;80;26233;-78
2021/01/30 02:14:35;;;;;;;14.47;3.60;;;;;;;8.59;100.00;100034.71;1791001;80;26315;-77
2021/01/30 02:17:13;;;;;;;8.73;2.80;;;;;;;8.56;100.00;100032.51;1790877;80;26287;-77
2021/01/30 02:20:28;;;;;;;12.93;3.10;;;;;;;8.61;100.00;100026.38;1790260;80;26673;-77
2021/01/30 02:23:33;;;;;;;9.43;3.00;;;;;;;8.60;100.00;100029.45;1790248;79;26262;-77
2021/01/30 02:26:38;;;;;;;9.17;3.50;;;;;;;8.58;100.00;100017.83;1732055;80;26641;-78
2021/01/30 02:29:20;;;;;;;11.90;3.20;;;;;;;8.56;100.00;100020.05;1764347;81;26672;-77
2021/01/30 02:32:03;;;;;;;10.53;3.47;;;;;;;8.48;100.00;100011.00;1766506;81;26735;-77
2021/01/30 02:34:53;;;;;;;11.23;3.63;;;;;;;8.56;100.00;100008.42;1763162;81;26649;-77
2021/01/30 02:37:26;;;;;;;8.80;3.10;;;;;;;8.43;100.00;100002.78;1764052;81;26668;-77
2021/01/30 02:39:59;;;;;;;14.13;4.17;;;;;;;8.49;100.00;100004.36;1764052;81;26260;-78
2021/01/30 02:42:31;;;;;;;11.10;2.97;;;;;;;8.50;100.00;99994.95;1764158;81;26238;-78
2021/01/30 02:45:04;;;;;;;16.77;3.00;;;;;;;8.47;100.00;99991.39;1764132;81;26330;-78
2021/01/30 02:47:38;;;;;;;14.97;3.57;;;;;;;8.48;100.00;99993.84;1764036;81;26257;-77
2021/01/30 02:50:12;;;;;;;9.20;2.93;;;;;;;8.47;100.00;99988.03;1764034;81;26250;-77
2021/01/30 02:52:43;;;;;;;15.60;3.43;;;;;;;8.53;100.00;99984.11;1764000;81;26334;-77
2021/01/30 02:55:16;;;;;;;9.43;3.07;;;;;;;8.43;100.00;99977.28;1734915;83;26773;-77
2021/01/30 02:57:47;;;;;;;12.83;3.07;;;;;;;8.42;100.00;99972.89;1732785;83;26293;-77
2021/01/30 03:00:21;;;;;;;6.00;2.90;;;;;;;8.40;100.00;99962.66;1767560;81;26244;-77
2021/01/30 03:02:51;;;;;;;11.43;3.20;;;;;;;8.33;100.00;99960.81;1736227;83;26730;-77
2021/01/30 03:05:23;;;;;;;11.83;2.97;;;;;;;8.36;100.00;99959.38;1736259;83;26295;-77
2021/01/30 03:08:04;;;;;;;12.27;3.20;;;;;;;8.33;100.00;99950.30;1736098;81;26267;-77
2021/01/30 03:10:37;;;;;;;14.13;3.07;;;;;;;8.31;100.00;99951.95;1736211;83;26338;-77
2021/01/30 03:13:13;;;;;;;12.77;3.00;;;;;;;8.33;100.00;99947.53;1764130;81;26261;-78
2021/01/30 03:15:47;;;;;;;11.60;2.50;;;;;;;8.31;100.00;99945.05;1736270;82;26207;-78
2021/01/30 03:18:20;;;;;;;8.67;2.43;;;;;;;8.29;100.00;99937.61;1735948;82;26248;-78
2021/01/30 03:20:51;;;;;;;10.63;3.00;;;;;;;8.29;100.00;99934.84;1735266;82;26687;-78
2021/01/30 03:23:22;;;;;;;9.97;3.03;;;;;;;8.29;100.00;99925.16;1763985;81;26316;-80
2021/01/30 03:25:53;;;;;;;10.70;3.00;;;;;;;8.34;100.00;99923.73;1734950;83;26260;-79
2021/01/30 03:28:23;;;;;;;10.23;2.80;;;;;;;8.31;100.00;99922.91;1767539;81;26308;-80
2021/01/30 03:30:54;;;;;;;10.63;3.10;;;;;;;8.28;100.00;99919.88;1736186;83;26320;-80
2021/01/30 03:33:24;;;;;;;12.47;3.20;;;;;;;8.30;100.00;99914.34;1734925;83;26330;-80
2021/01/30 03:35:54;;;;;;;8.23;2.20;;;;;;;8.28;100.00;99905.49;1767625;81;26343;-80
2021/01/30 03:38:24;;;;;;;9.77;2.50;;;;;;;8.29;100.00;99898.02;1736154;83;26676;-80
2021/01/30 03:40:53;;;;;;;12.03;3.13;;;;;;;8.26;100.00;99889.73;1734925;83;26263;-80
2021/01/30 03:43:23;;;;;;;11.10;3.20;;;;;;;8.21;100.00;99889.22;1767694;81;26277;-80
2021/01/30 03:45:53;;;;;;;9.60;2.90;;;;;;;8.21;100.00;99877.36;1736278;83;26241;-80
2021/01/30 03:48:23;;;;;;;9.37;2.50;;;;;;;8.18;100.00;99871.02;1734827;83;26260;-80
2021/01/30 03:50:53;;;;;;;16.13;3.43;;;;;;;8.27;100.00;99864.27;1767570;81;26257;-80
2021/01/30 03:53:23;;;;;;;13.60;2.93;;;;;;;8.24;100.00;99859.61;1754285;82;26269;-81
2021/01/30 03:55:52;;;;;;;12.53;3.17;;;;;;;8.29;100.00;99853.23;1764130;81;26249;-81
2021/01/30 03:58:22;;;;;;;12.80;3.47;;;;;;;8.24;100.00;99846.34;1734944;83;26334;-81
2021/01/30 04:00:52;;;;;;;8.87;2.80;;;;;;;8.22;100.00;99842.47;1767583;81;26339;-81
2021/01/30 04:03:22;;;;;;;13.20;2.40;;;;;;;8.22;100.00;99838.88;1754340;82;26335;-80
2021/01/30 04:05:52;;;;;;;11.83;2.70;;;;;;;8.18;100.00;99835.88;1764003;81;26245;-79
2021/01/30 04:08:21;;;;;;;10.67;2.60;;;;;;;8.19;100.00;99827.86;1764135;81;26711;-78
2021/01/30 04:10:51;;;;;;;10.43;3.07;;;;;;;8.15;100.00;99827.36;1764127;81;26398;-79
2021/01/30 04:13:21;;;;;;;11.57;3.63;;;;;;;8.16;100.00;99819.33;1763995;81;26350;-79
2021/01/30 04:15:51;;;;;;;12.33;3.17;;;;;;;8.15;100.00;99817.12;1735020;83;26365;-78
2021/01/30 04:18:21;;;;;;;10.43;2.83;;;;;;;8.14;100.00;99819.61;1736208;83;26742;-79
2021/01/30 04:20:51;;;;;;;13.67;2.70;;;;;;;8.12;100.00;99814.12;1763977;81;26344;-78
2021/01/30 04:23:21;;;;;;;11.50;3.27;;;;;;;8.08;100.00;99811.13;1767431;81;26378;-78
2021/01/30 04:25:51;;;;;;;14.77;3.90;;;;;;;8.09;100.00;99812.75;1734934;82;26287;-79
2021/01/30 04:28:20;;;;;;;9.97;2.23;;;;;;;8.02;100.00;99805.93;1767670;81;26362;-78
2021/01/30 04:30:50;;;;;;;12.73;3.47;;;;;;;8.05;100.00;99807.55;1754268;82;26464;-78
2021/01/30 04:33:20;;;;;;;13.83;3.03;;;;;;;8.02;100.00;99803.16;1763987;81;26237;-80
2021/01/30 04:35:50;;;;;;;10.53;2.80;;;;;;;8.04;100.00;99800.39;1764092;81;26232;-79
2021/01/30 04:38:20;;;;;;;9.73;2.80;;;;;;;8.02;100.00;99799.02;1764051;81;26236;-79
2021/01/30 04:40:51;;;;;;;10.53;3.13;;;;;;;8.04;100.00;99792.65;1734834;83;26240;-79
2021/01/30 04:43:24;;;;;;;11.30;2.60;;;;;;;7.99;100.00;99790.77;1732514;83;26292;-79
2021/01/30 04:46:01;;;;;;;11.30;2.67;;;;;;;7.98;100.00;99796.02;1732665;82;26797;-78
2021/01/30 04:48:38;;;;;;;10.93;3.00;;;;;;;7.97;100.00;99786.07;1767516;81;26283;-78
2021/01/30 04:51:13;;;;;;;11.30;2.90;;;;;;;7.96;100.00;99787.18;1764124;81;26252;-78
2021/01/30 04:54:15;;;;;;;10.37;2.90;;;;;;;7.98;100.00;99778.60;1736199;81;26314;-78
2021/01/30 04:56:55;;;;;;;8.67;2.83;;;;;;;7.99;100.00;99781.64;1764137;81;26322;-75
2021/01/30 04:59:29;;;;;;;14.20;3.60;;;;;;;7.98;100.00;99778.60;1763946;81;26249;-78
2021/01/30 05:02:02;;;;;;;11.97;3.60;;;;;;;7.95;100.00;99784.73;1762866;81;930545;-77
2021/01/30 05:04:35;;;;;;;14.23;2.83;;;;;;;7.96;100.00;99780.86;1777275;81;26293;-78
2021/01/30 05:07:16;;;;;;;15.27;2.80;;;;;;;7.95;100.00;99773.11;1777384;81;26231;-78
2021/01/30 05:09:50;;;;;;;12.17;3.00;;;;;;;7.97;100.00;99779.16;1777484;80;26328;-78
2021/01/30 05:12:23;;;;;;;11.23;3.00;;;;;;;7.97;100.00;99780.54;1777369;81;26348;-78
2021/01/30 05:14:56;;;;;;;12.90;3.10;;;;;;;7.93;100.00;99776.72;1740559;82;26266;-78
2021/01/30 05:17:30;;;;;;;14.20;3.60;;;;;;;7.95;100.00;99777.27;1747766;82;26242;-78
2021/01/30 05:20:04;;;;;;;12.90;3.33;;;;;;;7.97;100.00;99769.48;1777410;80;26301;-78
2021/01/30 05:22:40;;;;;;;15.40;2.90;;;;;;;7.95;100.00;99764.00;1777517;81;26281;-77
2021/01/30 05:25:14;;;;;;;12.33;3.50;;;;;;;7.92;100.00;99764.00;1740549;82;26672;-78
2021/01/30 05:28:05;;;;;;;14.33;3.23;;;;;;;7.96;100.00;99761.50;1777257;81;26674;-78
2021/01/30 05:30:43;;;;;;;9.83;2.57;;;;;;;7.96;100.00;99755.38;1777382;81;26650;-77
2021/01/30 05:33:26;;;;;;;12.67;2.47;;;;;;;7.94;100.00;99750.72;1777634;81;26255;-77
2021/01/30 05:35:59;;;;;;;10.97;3.00;;;;;;;7.95;100.00;99747.41;1777325;80;26312;-78
2021/01/30 05:38:39;;;;;;;11.40;3.10;;;;;;;7.92;100.00;99746.03;1777329;80;26747;-77
2021/01/30 05:41:12;;;;;;;8.63;3.00;;;;;;;7.91;100.00;99742.20;1769549;81;26686;-77
2021/01/30 05:43:47;;;;;;;9.57;2.97;;;;;;;7.96;100.00;99738.00;1769707;81;26239;-77
2021/01/30 05:46:22;;;;;;;12.50;3.40;;;;;;;7.94;100.00;99736.91;1735587;81;26329;-77
2021/01/30 05:48:55;;;;;;;9.10;3.47;;;;;;;7.94;100.00;99735.52;1779378;80;26289;-77
2021/01/30 05:51:28;;;;;;;14.03;4.60;;;;;;;7.97;100.00;99733.54;1777327;81;26227;-77
2021/01/30 05:53:58;;;;;;;10.17;4.63;;;;;;;7.91;100.00;99730.59;1777448;80;26745;-78
2021/01/30 05:56:29;;;;;;;17.03;4.87;;;;;;;7.99;100.00;99729.11;1777252;81;26305;-77
2021/01/30 05:59:01;;;;;;;11.90;6.10;;;;;;;7.97;100.00;99723.86;1777273;81;26306;-77
2021/01/30 06:01:31;;;;;;;14.10;6.37;;;;;;;8.00;100.00;99724.64;1777394;81;26674;-77
2021/01/30 06:04:04;;;;;;;12.10;6.77;;;;;;;7.95;100.00;99728.88;1777386;81;27115;-77
2021/01/30 06:06:37;;;;;;;11.50;7.37;;;;;;;7.91;100.00;99727.00;1777388;81;26247;-77
2021/01/30 06:09:11;;;;;;;12.77;7.77;;;;;;;7.96;100.00;99722.80;1777460;81;26234;-77
2021/01/30 06:11:50;;;;;;;12.33;7.23;;;;;;;7.95;100.00;99721.97;1777392;79;26352;-77
2021/01/30 06:14:40;;;;;;;14.70;7.17;;;;;;;7.89;100.00;99717.61;1777358;81;26222;-77
2021/01/30 06:17:18;;;;;;;12.83;7.90;;;;;;;7.91;100.00;99720.09;1777390;81;26308;-77
2021/01/30 06:20:00;;;;;;;9.87;6.97;;;;;;;7.86;100.00;99717.38;1777610;81;26242;-77
2021/01/30 06:22:30;;;;;;;10.63;7.20;;;;;;;7.84;100.00;99717.66;1740913;82;26352;-77
2021/01/30 06:25:01;;;;;;;10.50;7.50;;;;;;;7.87;100.00;99714.88;1777477;81;26230;-77
2021/01/30 06:27:35;;;;;;;9.87;7.13;;;;;;;7.85;100.00;99711.58;1777516;81;26358;-77
2021/01/30 06:30:12;;;;;;;9.30;6.80;;;;;;;7.86;100.00;99707.14;1777652;80;26741;-78
2021/01/30 06:32:44;;;;;;;11.77;7.13;;;;;;;7.85;100.00;99706.05;1777775;81;26234;-77
2021/01/30 06:35:23;;;;;;;9.93;6.70;;;;;;;7.80;100.00;99711.08;1740733;82;26257;-78
2021/01/30 06:37:55;;;;;;;9.47;7.17;;;;;;;7.81;100.00;99707.76;1777442;81;26293;-78
2021/01/30 06:40:27;;;;;;;11.30;7.03;;;;;;;7.79;100.00;99702.52;1777484;81;26226;-78
2021/01/30 06:43:05;;;;;;;9.57;6.70;;;;;;;7.79;100.00;99699.20;1777577;81;26320;-77
2021/01/30 06:45:37;;;;;;;9.90;7.10;;;;;;;7.76;100.00;99702.55;1777378;81;26702;-78
2021/01/30 06:48:12;;;;;;;8.83;5.80;;;;;;;7.82;100.00;99702.50;1777449;80;26313;-78
2021/01/30 06:50:43;;;;;;;7.93;5.77;;;;;;;7.71;100.00;99701.23;1739398;82;26669;-77
2021/01/30 06:53:21;;;;;;;9.17;5.57;;;;;;;7.79;100.00;99690.08;1777331;81;26317;-79
2021/01/30 06:55:51;;;;;;;6.27;4.63;;;;;;;7.66;100.00;99686.64;1777691;81;26662;-79
2021/01/30 06:58:30;;;;;;;7.37;4.93;;;;;;;7.73;100.00;99695.42;1740735;82;26250;-79
2021/01/30 07:01:10;;;;;;;5.57;3.90;;;;;;;7.64;100.00;99688.33;1780890;80;26696;-80
2021/01/30 07:04:07;;;;;;;6.30;3.70;;;;;;;7.70;100.00;99694.05;1780909;80;26316;-80
2021/01/30 07:06:44;;;;;;;6.37;2.83;;;;;;;7.67;100.00;99689.13;1761981;80;26677;-78
2021/01/30 07:09:25;;;;;;;6.83;3.00;;;;;;;7.59;100.00;99692.53;1765756;81;26329;-77
2021/01/30 07:12:03;;;;;;;5.73;2.60;;;;;;;7.59;100.00;99698.06;1804942;78;26334;-78
2021/01/30 07:14:46;;;;;;;6.60;3.10;;;;;;;7.58;100.00;99685.91;1804427;79;26702;-80
2021/01/30 07:17:21;;;;;;;5.40;3.30;;;;;;;7.55;100.00;99684.56;1804950;79;26294;-81
2021/01/30 07:19:57;;;;;;;8.10;3.23;;;;;;;7.63;100.00;99683.09;1803479;79;26224;-78
2021/01/30 07:22:32;;;;;;;6.53;2.57;;;;;;;7.52;100.00;99685.16;1804090;79;26756;-79
2021/01/30 07:25:05;;;;;;;7.27;2.70;;;;;;;7.58;100.00;99685.91;1804964;79;26215;-77
2021/01/30 07:27:38;;;;;;;5.43;2.80;;;;;;;7.56;100.00;99684.84;1804788;79;26214;-78
2021/01/30 07:30:12;;;;;;;6.43;2.53;;;;;;;7.57;100.00;99683.70;1804706;79;26219;-80
2021/01/30 07:32:45;;;;;;;6.57;2.80;;;;;;;7.58;100.00;99678.45;1804815;79;26220;-78
2021/01/30 07:35:19;;;;;;;5.80;2.67;;;;;;;7.59;100.00;99686.18;1804232;79;26672;-78
2021/01/30 07:37:57;;;;;;;7.47;2.63;;;;;;;7.61;100.00;99689.48;1804906;79;26302;-78
2021/01/30 07:40:32;;;;;;;4.17;2.40;;;;;;;7.58;100.00;99688.67;1808460;79;26207;-77
2021/01/30 07:43:06;;;;;;;4.83;2.40;;;;;;;7.55;100.00;99680.98;1804842;79;26321;-80
2021/01/30 07:45:39;;;;;;;6.27;2.50;;;;;;;7.51;100.00;99682.13;1804546;79;26724;-76
2021/01/30 07:48:12;;;;;;;5.33;2.00;;;;;;;7.51;100.00;99681.30;1804476;79;26232;-79
2021/01/30 07:50:45;;;;;;;4.73;1.40;;;;;;;7.51;100.00;99675.77;1804730;79;26216;-79
2021/01/30 07:53:18;;;;;;;3.10;1.47;;;;;;;7.52;100.00;99673.28;1804515;79;26293;-77
2021/01/30 07:55:55;;;;;;;5.73;1.60;;;;;;;7.46;100.00;99669.75;1804670;79;26655;-79
2021/01/30 07:58:45;;;;;;;4.00;1.20;;;;;;;7.36;100.00;99671.23;1804739;79;26289;-77
2021/01/30 08:01:38;;;;;;;5.87;1.40;;;;;;;7.37;100.00;99670.12;1804799;79;26697;-77
2021/01/30 08:04:19;;;;;;;4.87;1.30;;;;;;;7.38;100.00;99659.90;1804085;79;26635;-78
2021/01/30 08:06:58;;;;;;;2.87;1.03;;;;;;;7.26;100.00;99654.23;1803826;79;26227;-77
2021/01/30 08:09:31;;;;;;;3.70;1.40;;;;;;;7.30;100.00;99658.05;1804338;79;26223;-77
2021/01/30 08:12:06;;;;;;;3.70;1.10;;;;;;;7.28;100.00;99660.83;1804649;78;26268;-77
2021/01/30 08:14:44;;;;;;;4.80;1.40;;;;;;;7.24;100.00;99664.73;1804282;79;26760;-77
2021/01/30 08:17:26;;;;;;;3.33;1.20;;;;;;;7.25;100.00;99670.53;1804737;79;26725;-77
2021/01/30 08:19:59;;;;;;;2.77;1.10;;;;;;;7.20;100.00;99680.24;1804612;79;26231;-77
2021/01/30 08:22:32;;;;;;;1.47;0.87;;;;;;;7.25;100.00;99673.84;1804901;79;26224;-77
2021/01/30 08:25:05;;;;;;;2.97;0.73;;;;;;;7.24;100.00;99663.91;1773444;81;26325;-77
2021/01/30 08:27:39;;;;;;;1.60;0.70;;;;;;;7.23;100.00;99663.08;1740705;82;26343;-78
2021/01/30 08:30:12;;;;;;;3.83;0.90;;;;;;;7.19;100.00;99649.59;1777382;81;26655;-78
2021/01/30 08:32:55;;;;;;;3.57;0.70;;;;;;;7.19;100.00;99643.25;1777391;81;26639;-78
2021/01/30 08:35:57;;;;;;;2.33;0.80;;;;;;;7.15;100.00;99643.02;1740633;82;26238;-82
2021/01/30 08:38:38;;;;;;;2.63;0.70;;;;;;;7.10;100.00;99638.13;1737322;80;26303;-77
2021/01/30 08:41:31;;;;;;;1.83;0.57;;;;;;;7.13;100.00;99639.73;1783121;80;26669;-77
2021/01/30 08:44:01;;;;;;;1.53;0.83;;;;;;;7.10;100.00;99643.06;1758648;80;26231;-77
2021/01/30 08:46:34;;;;;;;3.17;1.00;;;;;;;7.15;100.00;99643.02;1777468;80;26226;-77
2021/01/30 08:49:25;;;;;;;2.90;1.13;;;;;;;7.20;100.00;99649.87;1777349;81;26790;-80
2021/01/30 08:52:22;;;;;;;4.60;2.00;;;;;;;7.18;100.00;99650.73;1777385;80;26345;-79
2021/01/30 08:54:53;;;;;;;2.87;1.67;;;;;;;7.18;100.00;99648.53;1777356;81;26226;-79
2021/01/30 08:57:44;;;;;;;2.37;1.50;;;;;;;7.21;100.00;99646.00;1763618;81;26750;-79
2021/01/30 09:00:50;;;;;;;1.93;1.70;;;;;;;7.08;100.00;99648.63;1777412;81;26278;-79
2021/01/30 09:03:48;;;;;;;2.80;1.80;;;;;;;7.10;100.00;99639.50;1775237;80;26235;-79
2021/01/30 09:06:56;;;;;;;2.63;1.47;;;;;;;7.02;100.00;99638.73;1777399;81;26299;-80
2021/01/30 09:09:27;;;;;;;2.63;1.97;;;;;;;6.94;100.00;99634.67;1777357;81;26235;-81
2021/01/30 09:12:02;;;;;;;2.70;1.60;;;;;;;6.89;100.00;99634.72;1777338;80;26234;-81
2021/01/30 09:14:39;;;;;;;2.17;1.70;;;;;;;6.82;100.00;99633.69;1771338;81;26278;-79
2021/01/30 09:17:20;;;;;;;1.60;1.37;;;;;;;6.70;100.00;99633.80;1777418;80;26673;-80
2021/01/30 09:19:54;;;;;;;1.80;1.37;;;;;;;6.72;100.00;99626.05;1776367;80;26410;-79
2021/01/30 09:22:28;;;;;;;2.40;1.77;;;;;;;6.69;100.00;99629.39;1777415;81;26235;-81
2021/01/30 09:25:09;;;;;;;3.27;1.70;;;;;;;6.64;100.00;99635.77;1777591;80;26370;-78
2021/01/30 09:27:48;;;;;;;1.93;1.50;;;;;;;6.66;100.00;99632.19;1777241;80;26299;-79
2021/01/30 09:30:31;;;;;;;1.80;1.70;;;;;;;6.58;100.00;99634.19;1777332;81;26238;-77
2021/01/30 09:33:04;;;;;;;3.20;1.47;;;;;;;6.54;100.00;99628.98;1777311;80;26238;-80
2021/01/30 09:35:37;;;;;;;2.80;1.50;;;;;;;6.53;100.00;99641.13;1777054;80;26297;-79
2021/01/30 09:38:21;;;;;;;3.40;1.97;;;;;;;6.56;100.00;99632.26;1777386;81;26346;-85
2021/01/30 09:40:51;;;;;;;1.93;1.70;;;;;;;6.61;100.00;99634.16;1777441;80;26239;-81
2021/01/30 09:43:24;;;;;;;3.47;1.97;;;;;;;6.54;100.00;99630.36;1777425;80;26234;-80
2021/01/30 09:45:54;;;;;;;3.80;1.60;;;;;;;6.49;100.00;99634.53;1770142;81;26662;-83
2021/01/30 09:48:25;;;;;;;2.83;1.70;;;;;;;6.54;100.00;99628.16;1770035;81;26827;-83
2021/01/30 09:50:58;;;;;;;1.77;1.67;;;;;;;6.55;100.00;99632.54;1774215;81;26721;-78
2021/01/30 09:53:32;;;;;;;3.13;1.83;;;;;;;6.61;100.00;99635.53;1777420;81;26677;-83
2021/01/30 09:56:08;;;;;;;5.73;1.93;;;;;;;6.56;100.00;99633.64;1758854;81;26223;-83
2021/01/30 09:58:40;;;;;;;2.33;1.90;;;;;;;6.56;100.00;99635.57;1773083;81;26317;-84
2021/01/30 10:01:14;;;;;;;2.43;1.90;;;;;;;6.55;100.00;99637.50;1777482;81;26231;-80
2021/01/30 10:03:45;;;;;;;3.27;2.00;;;;;;;6.54;100.00;99634.50;1777731;81;26630;-79
2021/01/30 10:06:19;;;;;;;2.47;2.03;;;;;;;6.52;100.00;99636.70;1777447;81;26553;-77
2021/01/30 10:08:49;;;;;;;2.67;1.90;;;;;;;6.55;100.00;99636.67;1777446;81;26241;-81
2021/01/30 10:11:21;;;;;;;2.27;1.80;;;;;;;6.60;100.00;99635.26;1777398;80;26235;-79
2021/01/30 10:13:57;;;;;;;9.57;2.97;;;;;;;6.52;100.00;99635.33;1777374;79;26907;-79
2021/01/30 10:16:29;;;;;;;3.80;1.80;;;;;;;6.72;100.00;99634.32;1740741;82;26245;-79
2021/01/30 10:19:02;;;;;;;5.03;1.90;;;;;;;6.55;100.00;99640.27;1777389;81;26290;-77
2021/01/30 10:21:35;;;;;;;3.53;1.90;;;;;;;6.52;100.00;99651.88;1777302;81;26306;-78
2021/01/30 10:24:15;;;;;;;1.73;1.63;;;;;;;6.60;100.00;99647.12;1777326;81;26778;-80
2021/01/30 10:26:45;;;;;;;3.67;1.90;;;;;;;6.57;100.00;99642.74;1777508;81;26251;-79
2021/01/30 10:29:18;;;;;;;2.00;1.80;;;;;;;6.52;100.00;99642.23;1740669;82;26281;-80
2021/01/30 10:31:51;;;;;;;3.27;1.90;;;;;;;6.47;100.00;99645.02;1777326;81;26305;-81
2021/01/30 10:34:26;;;;;;;3.73;2.30;;;;;;;6.49;100.00;99638.67;1777350;81;26391;-79
2021/01/30 10:37:02;;;;;;;2.73;1.80;;;;;;;6.59;100.00;99647.43;1777354;81;26223;-80
2021/01/30 10:39:36;;;;;;;2.40;2.00;;;;;;;6.50;100.00;99645.84;1740701;82;26704;-79
2021/01/30 10:42:10;;;;;;;2.43;2.17;;;;;;;6.38;100.00;99648.94;1780717;80;26394;-80
2021/01/30 10:44:44;;;;;;;3.23;1.87;;;;;;;6.46;100.00;99653.59;1778497;80;26669;-78
2021/01/30 10:47:14;;;;;;;2.67;2.20;;;;;;;6.44;100.00;99654.43;1776187;81;26320;-79
2021/01/30 10:49:44;;;;;;;3.23;1.77;;;;;;;6.43;100.00;99662.42;1740832;82;26263;-76
2021/01/30 10:52:17;;;;;;;2.07;1.87;;;;;;;6.29;100.00;99658.94;1777226;81;26670;-77
2021/01/30 10:54:47;;;;;;;3.13;2.27;;;;;;;6.31;100.00;99660.03;1758730;81;26235;-76
2021/01/30 10:57:30;;;;;;;3.90;2.00;;;;;;;6.34;100.00;99660.28;1738094;82;26325;-78
2021/01/30 11:00:04;;;;;;;4.07;2.23;;;;;;;6.32;100.00;99661.69;1774016;80;26670;-78
2021/01/30 11:02:50;;;;;;;3.27;2.17;;;;;;;6.51;100.00;99661.81;1768573;81;26240;-76
2021/01/30 11:05:31;;;;;;;3.97;2.10;;;;;;;6.33;100.00;99657.83;1770263;81;26661;-77
2021/01/30 11:08:03;;;;;;;4.20;2.33;;;;;;;6.29;100.00;99655.38;1759770;81;26234;-78
2021/01/30 11:10:41;;;;;;;4.53;2.33;;;;;;;6.14;100.00;99665.94;1770254;81;26305;-77
2021/01/30 11:13:15;;;;;;;2.80;2.43;;;;;;;6.24;100.00;99661.75;1772253;81;26238;-79
2021/01/30 11:15:46;;;;;;;4.77;2.87;;;;;;;6.18;100.00;99658.74;1777566;80;26326;-74
2021/01/30 11:18:39;;;;;;;3.93;2.60;;;;;;;6.21;100.00;99653.20;1777542;81;26784;-75
2021/01/30 11:21:12;;;;;;;3.20;2.60;;;;;;;6.25;100.00;99650.14;1769043;80;26293;-75
2021/01/30 11:23:47;;;;;;;3.10;2.60;;;;;;;6.31;100.00;99653.14;1777549;81;26251;-76
2021/01/30 11:26:41;;;;;;;3.13;2.77;;;;;;;6.31;100.00;99644.31;1777550;81;26685;-76
2021/01/30 11:29:37;;;;;;;3.27;2.73;;;;;;;6.34;100.00;99656.14;1777607;81;26289;-76
2021/01/30 11:32:11;;;;;;;4.00;3.00;;;;;;;6.36;100.00;99652.56;1777507;81;26231;-75
2021/01/30 11:34:42;;;;;;;3.87;3.07;;;;;;;6.42;100.00;99652.53;1777496;81;26243;-75
2021/01/30 11:37:12;;;;;;;3.60;2.80;;;;;;;6.29;100.00;99664.45;1777678;81;26223;-75
2021/01/30 11:39:43;;;;;;;3.10;2.50;;;;;;;6.26;100.00;99661.45;1777576;81;26239;-75
2021/01/30 11:42:14;;;;;;;4.57;2.87;;;;;;;6.30;100.00;99655.07;1777600;81;26226;-76
2021/01/30 11:44:43;;;;;;;5.43;2.50;;;;;;;6.29;100.00;99655.38;1777583;81;26765;-75
2021/01/30 11:47:13;;;;;;;5.10;3.23;;;;;;;6.33;100.00;99661.97;1777586;81;26325;-75
2021/01/30 11:49:44;;;;;;;3.93;2.80;;;;;;;6.55;100.00;99664.27;1777698;81;26297;-75
2021/01/30 11:52:19;;;;;;;4.80;2.80;;;;;;;6.42;100.00;99664.94;1777559;81;26227;-76
2021/01/30 11:54:48;;;;;;;3.00;2.77;;;;;;;6.50;100.00;99667.08;1777578;81;26239;-75
2021/01/30 11:57:18;;;;;;;4.00;2.87;;;;;;;6.39;100.00;99664.94;1777491;81;26231;-76
2021/01/30 11:59:49;;;;;;;3.13;2.53;;;;;;;6.43;100.00;99666.56;1777771;81;26258;-79
2021/01/30 12:02:22;;;;;;;2.90;2.60;;;;;;;6.51;100.00;99659.05;1777612;81;26235;-78
2021/01/30 12:04:52;;;;;;;3.43;2.90;;;;;;;6.42;100.00;99656.67;1777431;80;26326;-75